M I D A S
Marine Information and Data Acquisition System
Tripno 2275 of the Zeeleeuw from 2012-03-22 07:52:03 to 2012-03-22 16:22:12
Back to CruiseResearch ActivitiesStationsMapUnderway DataData graphs

EquipmentUnitsComment
TimeDGPSUTC
LatitudeDGPSDM.mWGS84
LongitudeDGPSDM.mWGS84
HeadingGyrodeg 
SOGDGPSknotsSpeed over ground
COGDGPSdegCourse over ground
DepthEcho soundermeters200 kHz
Missing or incorrect values are displayed as -999
Navigation data collected by the RV Zeeleeuw from 2012-03-22 07:26:42 to 2012-03-22 16:43:41
Time Latitude Longitude Heading SOG COG Depth
2012-03-22 07:27:47 51°13.635 2°56.018 126.1 0.1 263 -999
2012-03-22 07:28:46 51°13.635 2°56.018 126.1 -999 34 -999
2012-03-22 07:29:46 51°13.635 2°56.017 126.1 -999 31 -999
2012-03-22 07:30:46 51°13.635 2°56.018 126.1 -999 116 -999
2012-03-22 07:31:47 51°13.636 2°56.016 126.1 -999 255 -999
2012-03-22 07:32:47 51°13.636 2°56.017 126.1 -999 146 -999
2012-03-22 07:33:47 51°13.635 2°56.018 126.1 -999 35 -999
2012-03-22 07:34:47 51°13.635 2°56.019 126.1 -999 29 -999
2012-03-22 07:35:46 51°13.635 2°56.018 126.2 -999 24 -999
2012-03-22 07:36:47 51°13.636 2°56.018 126.3 -999 15 -999
2012-03-22 07:37:46 51°13.637 2°56.019 126.3 -999 142 -999
2012-03-22 07:38:47 51°13.636 2°56.019 126.4 -999 230 -999
2012-03-22 07:39:46 51°13.636 2°56.021 126.4 -999 19 -999
2012-03-22 07:40:46 51°13.636 2°56.021 126.3 -999 196 -999
2012-03-22 07:41:47 51°13.636 2°56.021 126.2 -999 62 -999
2012-03-22 07:42:46 51°13.636 2°56.02 126.2 -999 89 -999
2012-03-22 07:43:47 51°13.637 2°56.02 126.3 -999 35 -999
2012-03-22 07:44:46 51°13.636 2°56.019 127.3 -999 245 6.7
2012-03-22 07:45:47 51°13.637 2°56.019 127 -999 20 -999
2012-03-22 07:46:46 51°13.637 2°56.019 126.5 -999 176 -999
2012-03-22 07:47:47 51°13.637 2°56.019 126.9 -999 92 -999
2012-03-22 07:48:46 51°13.636 2°56.019 127.5 0.1 96 -999
2012-03-22 07:49:47 51°13.636 2°56.018 128.3 0.1 209 -999
2012-03-22 07:50:47 51°13.636 2°56.019 123.6 -999 139 -999
2012-03-22 07:51:46 51°13.635 2°56.019 115.4 0.1 191 -999
2012-03-22 07:52:46 51°13.634 2°56.017 105.3 0.4 272 -999
2012-03-22 07:53:46 51°13.644 2°55.95 107.5 3.5 286 -999
2012-03-22 07:54:46 51°13.667 2°55.857 118.9 4 297 -999
2012-03-22 07:55:46 51°13.707 2°55.77 135 4.3 313 -999
2012-03-22 07:56:46 51°13.763 2°55.691 146.7 4.6 324 -999
2012-03-22 07:57:46 51°13.83 2°55.63 156.9 4.6 334 -999
2012-03-22 07:58:46 51°13.896 2°55.598 178.6 3.7 355 -999
2012-03-22 07:59:46 51°13.949 2°55.616 212.8 3.1 30 -999
2012-03-22 08:00:46 51°13.98 2°55.655 239.3 0.6 30 -999
2012-03-22 08:01:46 51°13.992 2°55.611 302 3.6 303 -999
2012-03-22 08:02:46 51°14.052 2°55.514 323.1 6.4 323 -999
2012-03-22 08:03:46 51°14.159 2°55.4 329.2 8.4 327 -999
2012-03-22 08:04:46 51°14.282 2°55.282 333 8.8 331 -999
2012-03-22 08:05:46 51°14.409 2°55.159 329.1 9.2 328 -999
2012-03-22 08:06:45 51°14.547 2°55.015 330 11.2 320 10.6
2012-03-22 08:07:43 51°14.702 2°54.821 330.3 12.7 323 10.5
2012-03-22 08:08:43 51°14.877 2°54.63 335.9 12.7 329 10.9
2012-03-22 08:09:43 51°15.061 2°54.469 340.5 12.5 335 9.7
2012-03-22 08:10:43 51°15.253 2°54.366 354.2 12 347 8.4
2012-03-22 08:11:43 51°15.448 2°54.301 355.9 12.1 349 8.8
2012-03-22 08:12:43 51°15.647 2°54.25 1 12 355 9.4
2012-03-22 08:13:43 51°15.844 2°54.223 1.8 11.9 354 9.6
2012-03-22 08:14:43 51°16.038 2°54.17 356.7 10.7 351 10.2
2012-03-22 08:15:43 51°16.164 2°54.149 6.6 5.8 353 10.5
2012-03-22 08:16:43 51°16.242 2°54.121 10.6 3.9 357 10.7
2012-03-22 08:17:43 51°16.274 2°54.159 69.6 2.4 79 11.1
2012-03-22 08:18:43 51°16.277 2°54.258 81 4.5 88 10.7
2012-03-22 08:19:43 51°16.269 2°54.353 97.3 2.2 135 10.8
2012-03-22 08:20:43 51°16.243 2°54.347 144.5 1.6 230 10.6
2012-03-22 08:21:43 51°16.225 2°54.313 165.7 1.7 231 10.6
2012-03-22 08:22:43 51°16.207 2°54.276 182.9 1.8 231 10.7
2012-03-22 08:23:43 51°16.188 2°54.239 197.7 1.8 231 10.7
2012-03-22 08:24:43 51°16.169 2°54.199 212.3 1.9 235 10.6
2012-03-22 08:25:43 51°16.15 2°54.16 227.1 1.9 234 10.6
2012-03-22 08:26:43 51°16.132 2°54.12 242.6 1.9 234 10.7
2012-03-22 08:27:43 51°16.114 2°54.079 255.1 1.9 235 10.6
2012-03-22 08:28:43 51°16.095 2°54.023 269.6 2.9 252 10.6
2012-03-22 08:29:43 51°16.101 2°53.939 329.6 3 302 10.7
2012-03-22 08:30:43 51°16.175 2°53.858 340.8 7.8 327 10.9
2012-03-22 08:31:43 51°16.291 2°53.71 328.9 10.1 319 11.4
2012-03-22 08:32:43 51°16.422 2°53.512 324.4 11.1 316 11.6
2012-03-22 08:33:43 51°16.556 2°53.314 326.2 10.9 318 11.5
2012-03-22 08:34:43 51°16.697 2°53.133 332.9 10.9 326 11
2012-03-22 08:35:43 51°16.856 2°52.952 328.4 11.9 320 8.5
2012-03-22 08:36:43 51°17.01 2°52.744 327.6 12.3 321 9.4
2012-03-22 08:37:43 51°17.159 2°52.518 323.3 12.4 316 9.5
2012-03-22 08:38:43 51°17.31 2°52.293 325.6 12.4 318 10.1
2012-03-22 08:39:43 51°17.469 2°52.085 331.7 12.3 325 11
2012-03-22 08:40:43 51°17.641 2°51.917 336.3 12.1 328 10
2012-03-22 08:41:43 51°17.811 2°51.744 334.7 12.2 326 9.8
2012-03-22 08:42:43 51°17.975 2°51.549 332.7 12.3 328 10.3
2012-03-22 08:43:43 51°18.152 2°51.384 338.3 12.3 329 11.4
2012-03-22 08:44:43 51°18.314 2°51.223 336.8 9.6 325 12.7
2012-03-22 08:45:43 51°18.416 2°51.079 327.3 6.7 313 13.3
2012-03-22 08:46:43 51°18.477 2°50.965 344 4.7 333 13.9
2012-03-22 08:47:43 51°18.517 2°51.011 78.6 3.8 99 13.9
2012-03-22 08:48:43 51°18.485 2°51.043 140.9 1.9 195 13.8
2012-03-22 08:49:43 51°18.468 2°51.013 182.5 1.4 237 13.8
2012-03-22 08:50:46 51°18.453 2°50.981 200.8 1.5 232 13.7
2012-03-22 08:51:44 51°18.437 2°50.95 204.9 1.6 231 13.8
2012-03-22 08:52:43 51°18.42 2°50.917 203.5 1.6 230 13.8
2012-03-22 08:53:43 51°18.402 2°50.883 202.4 1.7 229 13.8
2012-03-22 08:54:43 51°18.383 2°50.849 202.6 1.8 227 13.7
2012-03-22 08:55:43 51°18.359 2°50.812 199.4 2.6 217 13.7
2012-03-22 08:56:43 51°18.297 2°50.773 177.8 5.1 189 13.5
2012-03-22 08:57:43 51°18.211 2°50.816 127.8 5.8 135 13.2
2012-03-22 08:58:43 51°18.192 2°50.974 74.1 7.2 75 12.9
2012-03-22 08:59:43 51°18.229 2°51.204 73.6 10.3 76 12.6
2012-03-22 09:00:43 51°18.282 2°51.484 73.8 11.4 78 12.1
2012-03-22 09:01:43 51°18.335 2°51.773 71.2 11.4 73 11.7
2012-03-22 09:02:43 51°18.381 2°52.068 74.1 11.4 73 11.4
2012-03-22 09:03:43 51°18.432 2°52.362 75.4 11.5 76 11.3
2012-03-22 09:04:43 51°18.477 2°52.66 74.1 11.6 75 11.1
2012-03-22 09:05:43 51°18.528 2°52.958 70.8 11.6 71 11.3
2012-03-22 09:06:43 51°18.579 2°53.256 77.1 11.7 80 11.3
2012-03-22 09:07:43 51°18.624 2°53.558 75.5 11.7 77 11.3
2012-03-22 09:08:43 51°18.666 2°53.861 72.7 11.7 75 11.3
2012-03-22 09:09:43 51°18.704 2°54.164 78.2 11.5 79 11.2
2012-03-22 09:10:43 51°18.743 2°54.465 78.2 11.7 82 11.1
2012-03-22 09:11:43 51°18.781 2°54.765 77 11.4 81 10.9
2012-03-22 09:12:43 51°18.819 2°55.058 74.9 11.3 78 10.9
2012-03-22 09:13:43 51°18.858 2°55.349 74.8 11.2 76 10.7
2012-03-22 09:14:43 51°18.93 2°55.622 66.9 11.2 66 10.8
2012-03-22 09:15:43 51°18.997 2°55.903 66.8 11.3 66 10.6
2012-03-22 09:16:43 51°19.066 2°56.182 66.6 11.3 67 10.5
2012-03-22 09:17:43 51°19.124 2°56.465 73.7 11.2 77 10.4
2012-03-22 09:18:43 51°19.161 2°56.756 73.3 11.1 76 10.2
2012-03-22 09:19:43 51°19.223 2°57.03 70.9 11.1 72 10.1
2012-03-22 09:20:43 51°19.279 2°57.311 69.6 11.1 71 10.1
2012-03-22 09:21:43 51°19.358 2°57.576 60.6 11 59 9.9
2012-03-22 09:22:43 51°19.451 2°57.828 57 11 58 9.9
2012-03-22 09:23:43 51°19.544 2°58.083 59.3 11.1 58 9.8
2012-03-22 09:24:43 51°19.636 2°58.34 60.7 11.2 60 9.7
2012-03-22 09:25:43 51°19.732 2°58.596 58.5 11.2 60 9.7
2012-03-22 09:26:43 51°19.81 2°58.868 70.2 11.4 72 9.8
2012-03-22 09:27:43 51°19.869 2°59.156 67.6 11.4 66 9.5
2012-03-22 09:28:43 51°19.929 2°59.444 74.9 11.5 75 9.4
2012-03-22 09:29:43 51°19.976 2°59.74 70.5 11.5 72 9.3
2012-03-22 09:30:43 51°20.041 3°0.028 69.5 11.5 71 9.2
2012-03-22 09:31:43 51°20.108 3°0.314 68.7 11.5 75 9.4
2012-03-22 09:32:44 51°20.165 3°0.613 73.7 11.6 74 -999
2012-03-22 09:33:43 51°20.217 3°0.903 70.6 11.5 71 9.2
2012-03-22 09:34:43 51°20.282 3°1.191 68.5 11.5 72 9
2012-03-22 09:35:43 51°20.336 3°1.486 73.4 11.6 75 9
2012-03-22 09:36:43 51°20.404 3°1.771 61.8 11.5 60 9.2
2012-03-22 09:37:43 51°20.506 3°2.031 61.1 11.6 62 9.1
2012-03-22 09:38:43 51°20.608 3°2.29 57.7 11.5 56 9.5
2012-03-22 09:39:43 51°20.713 3°2.549 62 11.7 63 9.9
2012-03-22 09:40:43 51°20.808 3°2.82 60.7 11.7 61 10
2012-03-22 09:41:43 51°20.902 3°3.093 61.5 11.7 61 10.1
2012-03-22 09:42:43 51°21 3°3.363 61.7 11.8 59 10.4
2012-03-22 09:43:43 51°21.089 3°3.642 64 11.8 62 10.6
2012-03-22 09:44:43 51°21.185 3°3.915 59.6 11.8 59 10.6
2012-03-22 09:45:43 51°21.284 3°4.19 62.1 12 61 10.9
2012-03-22 09:46:43 51°21.389 3°4.461 57.5 12 56 11.1
2012-03-22 09:47:43 51°21.508 3°4.711 53.3 11.6 51 11.3
2012-03-22 09:48:43 51°21.611 3°4.973 63.2 11.7 64 11.3
2012-03-22 09:49:43 51°21.703 3°5.249 64.9 11.7 65 11.4
2012-03-22 09:50:43 51°21.805 3°5.515 59.5 11.8 60 11.5
2012-03-22 09:51:43 51°21.876 3°5.808 67.9 11.9 66 11.5
2012-03-22 09:52:43 51°21.942 3°6.106 71.9 12 74 11.6
2012-03-22 09:53:43 51°21.971 3°6.421 81.7 12 85 11.5
2012-03-22 09:54:43 51°21.994 3°6.739 80.9 12 82 11.8
2012-03-22 09:55:43 51°22.029 3°7.053 79.1 12 79 12.3
2012-03-22 09:56:43 51°22.067 3°7.364 78.9 12 81 12.4
2012-03-22 09:57:43 51°22.099 3°7.676 82.3 11.9 81 12.5
2012-03-22 09:58:43 51°22.126 3°7.99 82.3 12 83 12.4
2012-03-22 09:59:43 51°22.152 3°8.307 82.3 12.1 84 12.6
2012-03-22 10:00:43 51°22.17 3°8.628 77.5 12 76 12.7
2012-03-22 10:01:43 51°22.263 3°8.91 58.3 12.1 57 13
2012-03-22 10:02:43 51°22.37 3°9.184 61.7 12.3 60 13.3
2012-03-22 10:03:43 51°22.467 3°9.475 60.3 12.3 59 13.4
2012-03-22 10:04:43 51°22.573 3°9.757 61 12.4 61 13.9
2012-03-22 10:05:43 51°22.655 3°10.064 69.2 12.6 67 18.5
2012-03-22 10:06:43 51°22.712 3°10.383 81.6 12.5 81 14.9
2012-03-22 10:07:43 51°22.725 3°10.716 88.6 12.5 87 14.5
2012-03-22 10:08:43 51°22.723 3°11.049 91.8 12.6 89 14.7
2012-03-22 10:09:43 51°22.741 3°11.382 86.3 12.6 85 14.8
2012-03-22 10:10:43 51°22.752 3°11.718 87 12.6 87 14.2
2012-03-22 10:11:43 51°22.727 3°12.053 101.8 12.7 102 14.2
2012-03-22 10:12:43 51°22.687 3°12.386 103 12.8 102 13.8
2012-03-22 10:13:43 51°22.647 3°12.723 103.8 12.9 104 13.5
2012-03-22 10:14:43 51°22.599 3°13 105.8 7.4 104 12.9
2012-03-22 10:15:43 51°22.59 3°13.152 88.3 4.4 89 12.6
2012-03-22 10:16:43 51°22.593 3°13.211 65 0.7 92 12.5
2012-03-22 10:17:43 51°22.589 3°13.221 51.2 0.4 135 12.5
2012-03-22 10:18:44 51°22.585 3°13.227 47.3 0.5 144 12.7
2012-03-22 10:19:43 51°22.579 3°13.232 45.4 0.4 159 12.5
2012-03-22 10:20:43 51°22.574 3°13.236 42.7 0.4 98 12.5
2012-03-22 10:21:43 51°22.595 3°13.259 7 2.5 6 12.5
2012-03-22 10:22:43 51°22.66 3°13.228 345.1 6.2 350 12.6
2012-03-22 10:23:43 51°22.817 3°13.213 358.6 11.8 357 12.2
2012-03-22 10:24:43 51°23.02 3°13.204 359.8 12.2 358 11.3
2012-03-22 10:25:43 51°23.215 3°13.201 359.4 11.2 -999 11.8
2012-03-22 10:26:43 51°23.393 3°13.216 14.5 10.5 20 11.7
2012-03-22 10:27:43 51°23.565 3°13.33 21.6 12 21 12.6
2012-03-22 10:28:43 51°23.762 3°13.444 22.1 12.9 20 12
2012-03-22 10:29:43 51°23.967 3°13.515 7.1 12.8 7 12.3
2012-03-22 10:30:43 51°24.172 3°13.501 342.3 11.8 337 14.4
2012-03-22 10:31:43 51°24.331 3°13.326 305.2 11.8 305 19.2
2012-03-22 10:32:43 51°24.428 3°13.043 294.7 12.3 297 19.7
2012-03-22 10:33:43 51°24.533 3°12.761 298.7 11.9 295 18.2
2012-03-22 10:34:43 51°24.551 3°12.446 278.8 12.1 277 17
2012-03-22 10:35:43 51°24.584 3°12.129 281.2 12.1 281 16.6
2012-03-22 10:36:43 51°24.614 3°11.81 278.9 12.1 278 14.8
2012-03-22 10:37:43 51°24.621 3°11.49 273 12 270 13.9
2012-03-22 10:38:43 51°24.634 3°11.172 280.5 12 277 13.6
2012-03-22 10:39:43 51°24.644 3°10.854 272.4 12 268 13.1
2012-03-22 10:40:43 51°24.646 3°10.536 276.2 12 275 12.1
2012-03-22 10:41:43 51°24.673 3°10.221 280.4 11.9 277 11.2
2012-03-22 10:42:43 51°24.696 3°9.905 284.3 11.9 282 10.6
2012-03-22 10:43:43 51°24.723 3°9.59 281.3 12 280 10.2
2012-03-22 10:44:43 51°24.748 3°9.276 278.2 11.9 275 10
2012-03-22 10:45:43 51°24.75 3°8.956 275.2 12.1 269 10.1
2012-03-22 10:46:43 51°24.76 3°8.637 283 12.1 277 10.3
2012-03-22 10:47:43 51°24.826 3°8.341 302.4 11.7 295 10.2
2012-03-22 10:48:43 51°24.899 3°8.052 294.8 11.8 291 10.3
2012-03-22 10:49:43 51°24.977 3°7.779 315.9 10.8 319 9.7
2012-03-22 10:50:43 51°25.154 3°7.726 1.8 11.3 1 9.6
2012-03-22 10:51:43 51°25.343 3°7.727 1.2 11.6 2 9.9
2012-03-22 10:52:43 51°25.537 3°7.728 1.3 11.6 2 10.3
2012-03-22 10:53:43 51°25.724 3°7.716 358.2 10.3 -999 10.7
2012-03-22 10:54:43 51°25.888 3°7.722 359.4 9.7 1 10.5
2012-03-22 10:55:43 51°26.043 3°7.801 19 9.9 24 10.5
2012-03-22 10:56:43 51°26.187 3°7.934 32.2 10.1 37 10.6
2012-03-22 10:57:43 51°26.32 3°8.097 32.1 9.5 37 10.8
2012-03-22 10:58:43 51°26.401 3°8.231 44.2 5.5 54 11.1
2012-03-22 10:59:43 51°26.43 3°8.34 57.9 3.7 74 11.5
2012-03-22 11:00:43 51°26.428 3°8.388 78.6 1 175 11.5
2012-03-22 11:01:46 51°26.412 3°8.394 90.3 1 161 -999
2012-03-22 11:02:44 51°26.397 3°8.402 94.9 1 159 11.7
2012-03-22 11:03:43 51°26.382 3°8.412 105.5 1 157 11.6
2012-03-22 11:04:43 51°26.367 3°8.422 117 1 152 11.7
2012-03-22 11:05:43 51°26.353 3°8.435 128.8 1 149 11.7
2012-03-22 11:06:43 51°26.339 3°8.45 138 1 142 11.7
2012-03-22 11:07:43 51°26.326 3°8.468 145.5 1.1 141 11.6
2012-03-22 11:08:43 51°26.306 3°8.491 155.5 2.4 148 11.7
2012-03-22 11:09:43 51°26.252 3°8.519 192.7 4 179 11.7
2012-03-22 11:10:43 51°26.201 3°8.467 257.1 3.8 247 11.5
2012-03-22 11:11:43 51°26.199 3°8.338 289.4 6.5 286 11.3
2012-03-22 11:12:43 51°26.259 3°8.133 298.2 10.3 296 11.1
2012-03-22 11:13:43 51°26.347 3°7.873 301 11.3 299 11
2012-03-22 11:14:43 51°26.443 3°7.614 309.8 11.3 310 11
2012-03-22 11:15:43 51°26.56 3°7.375 311 11.5 308 12.7
2012-03-22 11:16:43 51°26.681 3°7.136 311.4 11.6 310 13.1
2012-03-22 11:17:43 51°26.803 3°6.897 310.7 11.6 308 13.7
2012-03-22 11:18:43 51°26.926 3°6.659 310 11.6 309 14.2
2012-03-22 11:19:43 51°27.048 3°6.418 309.3 11.7 310 14.8
2012-03-22 11:20:43 51°27.169 3°6.176 311 11.7 311 15.2
2012-03-22 11:21:43 51°27.293 3°5.935 310.6 11.7 311 15.7
2012-03-22 11:22:43 51°27.416 3°5.693 310.9 11.7 308 16.1
2012-03-22 11:23:43 51°27.54 3°5.45 311.2 11.8 310 16.9
2012-03-22 11:24:43 51°27.664 3°5.209 310.2 11.7 311 16.9
2012-03-22 11:25:43 51°27.789 3°4.971 309.8 11.7 310 16.1
2012-03-22 11:26:43 51°27.915 3°4.734 310.6 11.7 309 17.1
2012-03-22 11:27:43 51°28.042 3°4.496 309.5 11.8 311 19
2012-03-22 11:28:43 51°28.172 3°4.257 309.5 11.9 312 21.3
2012-03-22 11:29:43 51°28.249 3°3.981 279.2 11.6 279 22.8
2012-03-22 11:30:43 51°28.282 3°3.673 280.1 11.8 279 23.9
2012-03-22 11:31:43 51°28.298 3°3.457 266.5 5 259 24.8
2012-03-22 11:32:43 51°28.254 3°3.407 199.8 2.9 175 24.7
2012-03-22 11:33:43 51°28.233 3°3.43 179.3 1.1 94 24.5
2012-03-22 11:34:43 51°28.233 3°3.458 161.5 1.1 93 24.4
2012-03-22 11:35:43 51°28.233 3°3.486 154.6 1.1 90 24.4
2012-03-22 11:36:43 51°28.233 3°3.514 152.9 1 90 24.4
2012-03-22 11:37:43 51°28.233 3°3.542 156.1 1 91 24.2
2012-03-22 11:38:43 51°28.206 3°3.577 189.3 2.7 167 24
2012-03-22 11:39:43 51°28.17 3°3.547 241.9 2.9 234 23.9
2012-03-22 11:40:43 51°28.15 3°3.43 260 6.8 260 24.2
2012-03-22 11:41:43 51°28.122 3°3.206 259.2 10 259 24.5
2012-03-22 11:42:43 51°28.089 3°2.929 259.8 10.7 259 24.9
2012-03-22 11:43:43 51°28.054 3°2.631 260.1 11.6 260 25.5
2012-03-22 11:44:43 51°28.017 3°2.327 260.4 11.7 258 26.2
2012-03-22 11:45:43 51°27.983 3°2.021 259.5 11.7 259 26.3
2012-03-22 11:46:43 51°27.948 3°1.717 260.1 11.6 258 26.2
2012-03-22 11:47:43 51°27.917 3°1.413 260.6 11.5 262 26.3
2012-03-22 11:48:43 51°27.885 3°1.109 260.4 11.6 261 26.8
2012-03-22 11:49:43 51°27.852 3°0.805 259.2 11.6 261 25.3
2012-03-22 11:50:43 51°27.822 3°0.498 260.7 11.7 261 24.9
2012-03-22 11:51:43 51°27.791 3°0.189 260.1 11.8 260 23.4
2012-03-22 11:52:43 51°27.76 2°59.879 259.9 11.8 260 21.5
2012-03-22 11:53:43 51°27.729 2°59.568 260.3 11.8 261 21.1
2012-03-22 11:54:43 51°27.696 2°59.259 257.6 11.8 260 20.6
2012-03-22 11:55:43 51°27.663 2°58.95 260.5 11.7 260 21.1
2012-03-22 11:56:43 51°27.63 2°58.643 260.5 11.7 261 21.1
2012-03-22 11:57:43 51°27.598 2°58.337 260.7 11.7 261 24.4
2012-03-22 11:58:43 51°27.567 2°58.03 260.6 11.7 263 27.2
2012-03-22 11:59:43 51°27.528 2°57.725 249.9 11.7 251 28.4
2012-03-22 12:00:43 51°27.465 2°57.431 249.9 11.7 251 29.3
2012-03-22 12:01:43 51°27.4 2°57.138 248.3 11.7 250 29.8
2012-03-22 12:02:43 51°27.337 2°56.847 251.7 11.5 252 24.9
2012-03-22 12:03:43 51°27.281 2°56.555 251 11.5 253 26.9
2012-03-22 12:04:43 51°27.221 2°56.262 251.3 11.8 253 30
2012-03-22 12:05:43 51°27.16 2°55.965 250 11.7 252 29.1
2012-03-22 12:06:43 51°27.101 2°55.668 250.4 11.8 252 33.2
2012-03-22 12:07:43 51°27.037 2°55.374 248.6 11.6 253 31.7
2012-03-22 12:08:43 51°26.976 2°55.083 251.7 11.5 252 29.7
2012-03-22 12:09:43 51°26.874 2°54.837 230.1 11.3 231 29.5
2012-03-22 12:10:43 51°26.755 2°54.603 230.8 11.2 228 27.5
2012-03-22 12:11:43 51°26.632 2°54.381 230.3 11.2 230 30.1
2012-03-22 12:12:43 51°26.514 2°54.144 230.7 11.4 231 34.5
2012-03-22 12:13:43 51°26.458 2°53.859 260.8 11.8 264 35.8
2012-03-22 12:14:43 51°26.431 2°53.546 260.4 12 263 35.5
2012-03-22 12:15:43 51°26.405 2°53.234 259.9 11.8 264 33.2
2012-03-22 12:16:43 51°26.385 2°52.922 262.1 11.7 265 28.9
2012-03-22 12:17:43 51°26.362 2°52.611 258.6 11.7 262 30
2012-03-22 12:18:43 51°26.339 2°52.3 259.4 11.7 263 30.5
2012-03-22 12:19:43 51°26.319 2°51.99 261 11.6 262 28.7
2012-03-22 12:20:43 51°26.293 2°51.687 260.7 11.3 260 28.4
2012-03-22 12:21:43 51°26.263 2°51.387 258.7 11.5 261 30.9
2012-03-22 12:22:43 51°26.239 2°51.087 260.6 11.3 263 26.9
2012-03-22 12:23:43 51°26.21 2°50.79 260.5 11.4 261 26.7
2012-03-22 12:24:43 51°26.177 2°50.494 260.2 11.3 261 26.5
2012-03-22 12:25:43 51°26.149 2°50.196 259.6 11.3 262 26.5
2012-03-22 12:26:43 51°26.125 2°49.898 259 11.2 262 26.6
2012-03-22 12:27:43 51°26.099 2°49.602 259.3 11.2 260 26.4
2012-03-22 12:28:43 51°26.074 2°49.308 261 10 260 26.5
2012-03-22 12:29:43 51°26.058 2°49.09 260.6 7.6 264 27.1
2012-03-22 12:30:43 51°26.048 2°48.929 257.5 4.5 267 26.7
2012-03-22 12:31:43 51°26.049 2°48.827 259.1 3.4 271 26.6
2012-03-22 12:32:43 51°26.047 2°48.725 257.7 4.4 266 27
2012-03-22 12:33:43 51°26.038 2°48.6 256.1 4.9 262 27.4
2012-03-22 12:34:43 51°26.028 2°48.527 228.5 0.6 207 26.3
2012-03-22 12:35:43 51°26.031 2°48.549 187.1 1.3 63 26.9
2012-03-22 12:36:43 51°26.042 2°48.579 168.9 1.3 63 27.1
2012-03-22 12:37:43 51°26.052 2°48.612 162.5 1.3 62 27.2
2012-03-22 12:38:43 51°26.063 2°48.644 157.8 1.4 62 26.4
2012-03-22 12:39:43 51°26.074 2°48.676 153.1 1.4 61 27.3
2012-03-22 12:40:43 51°26.085 2°48.708 150.7 1.3 61 27.1
2012-03-22 12:41:43 51°26.097 2°48.739 150.6 1.4 59 25.3
2012-03-22 12:42:43 51°26.097 2°48.777 166.3 2 126 27
2012-03-22 12:43:43 51°26.067 2°48.776 229.3 3 223 26.9
2012-03-22 12:44:43 51°25.989 2°48.636 231.2 9.4 230 27
2012-03-22 12:45:43 51°25.879 2°48.431 230.8 10.4 228 26.4
2012-03-22 12:46:43 51°25.769 2°48.217 235.9 10.3 240 26.7
2012-03-22 12:47:43 51°25.686 2°47.975 241.5 10.5 240 26.7
2012-03-22 12:48:43 51°25.605 2°47.731 241.8 10.4 242 27.7
2012-03-22 12:49:43 51°25.519 2°47.489 242.5 10.5 243 28.6
2012-03-22 12:50:43 51°25.433 2°47.246 240.1 10.6 240 29.1
2012-03-22 12:51:43 51°25.347 2°47.001 240.2 10.5 239 28.1
2012-03-22 12:52:43 51°25.258 2°46.76 241.2 10.5 241 28.2
2012-03-22 12:53:43 51°25.17 2°46.518 239.6 10.5 240 28.2
2012-03-22 12:54:43 51°25.085 2°46.272 241.8 10.5 241 27.5
2012-03-22 12:55:43 51°24.999 2°46.025 242.3 10.6 243 26.9
2012-03-22 12:56:43 51°24.914 2°45.778 239.4 10.7 239 28.2
2012-03-22 12:57:43 51°24.828 2°45.529 243.2 10.7 245 27.7
2012-03-22 12:58:43 51°24.739 2°45.282 238.5 10.8 239 29.3
2012-03-22 12:59:43 51°24.651 2°45.033 239.2 10.8 241 29.1
2012-03-22 13:00:43 51°24.572 2°44.775 244 10.8 245 30.4
2012-03-22 13:01:43 51°24.485 2°44.525 240.2 10.6 240 30.1
2012-03-22 13:02:43 51°24.396 2°44.277 240 10.7 239 20.7
2012-03-22 13:03:43 51°24.308 2°44.031 239.5 10.6 238 27.9
2012-03-22 13:04:43 51°24.225 2°43.784 240.6 10.4 241 27.5
2012-03-22 13:05:43 51°24.143 2°43.542 242.7 10.3 244 27.7
2012-03-22 13:06:43 51°24.065 2°43.295 239.3 10.4 241 28.4
2012-03-22 13:07:43 51°24.001 2°43.042 252.9 10.5 256 27.9
2012-03-22 13:08:43 51°23.96 2°42.767 255.2 10.6 260 29
2012-03-22 13:09:43 51°23.916 2°42.495 251.2 10.5 254 28.4
2012-03-22 13:10:43 51°23.871 2°42.221 252.1 10.7 257 28.2
2012-03-22 13:11:43 51°23.828 2°41.946 251.2 10.7 258 28.7
2012-03-22 13:12:43 51°23.784 2°41.668 251 10.8 256 32.8
2012-03-22 13:13:43 51°23.741 2°41.388 251 10.8 254 30
2012-03-22 13:14:43 51°23.696 2°41.109 252 10.9 256 29.9
2012-03-22 13:15:43 51°23.651 2°40.829 249.3 10.8 254 31.3
2012-03-22 13:16:43 51°23.601 2°40.551 250.5 10.8 252 32.8
2012-03-22 13:17:43 51°23.54 2°40.28 245.4 10.8 249 32.8
2012-03-22 13:18:43 51°23.464 2°40.021 239.2 10.7 239 32.9
2012-03-22 13:19:43 51°23.37 2°39.78 235.8 10.7 237 32
2012-03-22 13:20:43 51°23.286 2°39.529 242.7 10.7 245 32.9
2012-03-22 13:21:43 51°23.2 2°39.286 233.8 10.6 233 32.7
2012-03-22 13:22:43 51°23.099 2°39.042 239.4 11.2 240 32.4
2012-03-22 13:23:43 51°23.003 2°38.79 235.5 11.1 235 32.8
2012-03-22 13:24:43 51°22.882 2°38.568 227 11.1 228 33.7
2012-03-22 13:25:43 51°22.762 2°38.346 230.9 11 229 33.9
2012-03-22 13:26:43 51°22.637 2°38.131 231.7 10.9 231 31.9
2012-03-22 13:27:43 51°22.525 2°37.907 230.9 10.6 225 33.7
2012-03-22 13:28:43 51°22.388 2°37.729 219.8 10.7 216 34.2
2012-03-22 13:29:43 51°22.243 2°37.56 222.9 10.7 219 34.3
2012-03-22 13:30:43 51°22.11 2°37.369 226.2 10.8 223 33.1
2012-03-22 13:31:43 51°21.964 2°37.199 221 10.9 216 33.6
2012-03-22 13:32:43 51°21.831 2°37.007 226.3 10.7 223 34.8
2012-03-22 13:33:43 51°21.692 2°36.823 219.3 11 216 34.5
2012-03-22 13:34:43 51°21.563 2°36.619 230.5 11 230 34
2012-03-22 13:35:43 51°21.445 2°36.397 230.8 11 229 33.1
2012-03-22 13:36:43 51°21.319 2°36.185 230 11 229 30.7
2012-03-22 13:37:43 51°21.224 2°35.937 247.1 11 249 33.9
2012-03-22 13:38:43 51°21.16 2°35.662 246.8 10.9 247 34.9
2012-03-22 13:39:43 51°21.093 2°35.388 248.7 11.1 250 34.1
2012-03-22 13:40:43 51°21.017 2°35.122 243.3 11 244 34.2
2012-03-22 13:41:43 51°20.956 2°34.845 247.7 11 250 34.5
2012-03-22 13:42:43 51°20.888 2°34.57 242.8 11.2 247 34.6
2012-03-22 13:43:43 51°20.839 2°34.281 255.4 11.4 260 34.1
2012-03-22 13:44:43 51°20.802 2°33.982 255.1 11.4 258 33.9
2012-03-22 13:45:43 51°20.749 2°33.691 248.8 11.4 252 33.4
2012-03-22 13:46:43 51°20.692 2°33.399 253.4 11.6 257 33.5
2012-03-22 13:47:43 51°20.646 2°33.097 250.1 11.6 251 33.4
2012-03-22 13:48:43 51°20.584 2°32.802 248.3 11.6 251 33.3
2012-03-22 13:49:43 51°20.54 2°32.498 255.9 11.7 258 32.8
2012-03-22 13:50:43 51°20.494 2°32.195 251.8 11.6 254 33.1
2012-03-22 13:51:43 51°20.432 2°31.901 249.5 11.5 250 31.8
2012-03-22 13:52:43 51°20.379 2°31.605 255.9 11.5 257 26.4
2012-03-22 13:53:43 51°20.333 2°31.307 252.7 11.5 252 23.2
2012-03-22 13:54:43 51°20.269 2°31.021 248.2 11.4 248 18.1
2012-03-22 13:55:43 51°20.211 2°30.734 254.1 10.9 255 16.8
2012-03-22 13:56:43 51°20.171 2°30.482 252.5 9.1 251 15
2012-03-22 13:57:43 51°20.119 2°30.255 251.2 9 252 16.2
2012-03-22 13:58:43 51°20.075 2°30.062 241.7 5.2 237 15.3
2012-03-22 13:59:43 51°20.024 2°30.003 219.1 3.3 209 17.1
2012-03-22 14:00:43 51°19.993 2°29.982 199.8 0.9 114 15.8
2012-03-22 14:01:43 51°19.994 2°30.011 163 1.2 80 16.2
2012-03-22 14:02:43 51°20.001 2°30.043 145.9 1.3 74 14.3
2012-03-22 14:03:43 51°20.007 2°30.073 142 1.1 68 16
2012-03-22 14:04:43 51°20.016 2°30.1 142.2 1.2 64 15.2
2012-03-22 14:05:43 51°20.024 2°30.129 141.1 1.2 68 14.1
2012-03-22 14:06:43 51°20.014 2°30.178 141.7 4 124 15.9
2012-03-22 14:07:43 51°19.96 2°30.315 134.5 8.3 126 16.8
2012-03-22 14:08:43 51°19.863 2°30.583 121.2 13.2 116 19
2012-03-22 14:09:43 51°19.763 2°30.896 128.4 13.1 127 24.3
2012-03-22 14:10:43 51°19.623 2°31.152 138.2 12.7 135 31
2012-03-22 14:11:43 51°19.484 2°31.406 132.2 12.7 128 33.1
2012-03-22 14:12:43 51°19.349 2°31.666 135.7 12.6 131 32.7
2012-03-22 14:13:43 51°19.217 2°31.925 137.1 12.6 131 33.2
2012-03-22 14:14:43 51°19.082 2°32.176 132.6 12.6 125 32.8
2012-03-22 14:15:43 51°18.96 2°32.447 133 12.6 129 32.6
2012-03-22 14:16:43 51°18.821 2°32.701 135.7 12.6 128 31.2
2012-03-22 14:17:43 51°18.699 2°32.973 132.2 12.6 125 29.1
2012-03-22 14:18:43 51°18.564 2°33.224 138 12.3 132 25.7
2012-03-22 14:19:43 51°18.433 2°33.479 133.3 12.4 127 19.7
2012-03-22 14:20:43 51°18.304 2°33.74 136.4 12.6 132 25.3
2012-03-22 14:21:43 51°18.163 2°33.988 136.8 12.6 132 28.6
2012-03-22 14:22:43 51°18.032 2°34.252 131.2 12.7 127 30.3
2012-03-22 14:23:43 51°17.902 2°34.516 134.9 12.7 130 30.2
2012-03-22 14:24:43 51°17.765 2°34.771 136.4 12.7 131 21.6
2012-03-22 14:25:43 51°17.624 2°35.022 137 12.8 132 17.7
2012-03-22 14:26:43 51°17.481 2°35.269 138.4 12.6 134 15.4
2012-03-22 14:27:43 51°17.341 2°35.518 135.1 12.7 130 13
2012-03-22 14:28:43 51°17.21 2°35.784 134.4 12.8 130 18.4
2012-03-22 14:29:43 51°17.08 2°36.05 130.7 12.5 126 25.4
2012-03-22 14:30:43 51°16.936 2°36.283 143.2 12.3 141 28.8
2012-03-22 14:31:43 51°16.787 2°36.517 136.8 12.4 131 29.2
2012-03-22 14:32:43 51°16.683 2°36.727 135.7 8.1 130 28.6
2012-03-22 14:33:43 51°16.614 2°36.819 162.3 3.8 150 28.7
2012-03-22 14:34:43 51°16.595 2°36.847 154.6 0.7 64 28.7
2012-03-22 14:35:43 51°16.602 2°36.863 139.1 0.7 50 28.6
2012-03-22 14:36:43 51°16.611 2°36.876 130.4 0.6 34 28.7
2012-03-22 14:37:43 51°16.62 2°36.885 131.5 0.6 27 28.7
2012-03-22 14:38:43 51°16.629 2°36.892 136.5 0.7 27 28.8
2012-03-22 14:39:43 51°16.64 2°36.898 140.3 0.7 18 28.9
2012-03-22 14:40:43 51°16.651 2°36.904 143.4 0.7 20 28.8
2012-03-22 14:41:43 51°16.662 2°36.909 149 0.7 19 28.6
2012-03-22 14:42:43 51°16.673 2°36.914 155 0.7 17 28.4
2012-03-22 14:43:43 51°16.683 2°36.919 160.6 0.4 47 28.3
2012-03-22 14:44:43 51°16.642 2°36.944 170.3 6.1 160 28.8
2012-03-22 14:45:43 51°16.511 2°36.985 180.1 9.3 176 28.5
2012-03-22 14:46:43 51°16.337 2°36.997 177.9 11.3 174 28.4
2012-03-22 14:47:43 51°16.144 2°37.033 176.5 11.7 173 24
2012-03-22 14:48:43 51°15.95 2°37.086 170.3 11.9 166 16.6
2012-03-22 14:49:43 51°15.757 2°37.144 175.4 11.8 174 14
2012-03-22 14:50:43 51°15.559 2°37.176 176.5 12.1 176 14.9
2012-03-22 14:51:43 51°15.36 2°37.169 183.3 12 182 15.4
2012-03-22 14:52:43 51°15.158 2°37.178 178.1 12.3 174 14.8
2012-03-22 14:53:43 51°14.959 2°37.239 169.8 12.1 168 11.7
2012-03-22 14:54:43 51°14.758 2°37.273 179.4 12 177 11
2012-03-22 14:55:43 51°14.556 2°37.295 177.4 12.1 174 12.3
2012-03-22 14:56:43 51°14.357 2°37.351 173.4 12.3 171 14.7
2012-03-22 14:57:43 51°14.154 2°37.395 175.5 12.4 173 17.9
2012-03-22 14:58:43 51°13.949 2°37.391 187.4 12.4 186 22.2
2012-03-22 14:59:43 51°13.742 2°37.361 186.6 12.5 186 19.8
2012-03-22 15:00:43 51°13.539 2°37.317 187.4 11.8 188 10.1
2012-03-22 15:01:43 51°13.341 2°37.278 185.8 12.1 186 10.4
2012-03-22 15:02:43 51°13.138 2°37.261 180.5 12.2 179 10.7
2012-03-22 15:03:43 51°12.934 2°37.266 178.1 12.2 178 11.2
2012-03-22 15:04:43 51°12.729 2°37.265 183.5 12.3 185 12.3
2012-03-22 15:05:43 51°12.525 2°37.217 189.5 12.4 190 12.2
2012-03-22 15:06:43 51°12.323 2°37.173 187.4 12.1 187 12.2
2012-03-22 15:07:43 51°12.12 2°37.145 181.5 12.3 181 12.4
2012-03-22 15:08:43 51°11.917 2°37.11 189.6 12.5 191 13
2012-03-22 15:09:43 51°11.712 2°37.061 189.7 12.4 191 13.6
2012-03-22 15:10:43 51°11.51 2°36.977 198.2 12.5 198 14.1
2012-03-22 15:11:43 51°11.31 2°36.891 192.6 12.3 192 14.3
2012-03-22 15:12:43 51°11.109 2°36.829 189.9 12.4 189 14
2012-03-22 15:13:43 51°10.907 2°36.769 191.2 12.3 190 12.9
2012-03-22 15:14:43 51°10.71 2°36.69 196 12.1 196 11.5
2012-03-22 15:15:43 51°10.518 2°36.597 199 12.1 200 10.3
2012-03-22 15:16:43 51°10.321 2°36.531 181.7 12.3 178 14.5
2012-03-22 15:17:43 51°10.144 2°36.66 134.2 12.1 127 19.3
2012-03-22 15:18:43 51°10.132 2°36.972 78.5 12.6 74 19.3
2012-03-22 15:19:43 51°10.205 2°37.292 73.6 12.9 71 19.3
2012-03-22 15:20:43 51°10.264 2°37.619 77.6 12.8 74 19.3
2012-03-22 15:21:43 51°10.343 2°37.934 70.5 12.8 67 18.7
2012-03-22 15:22:43 51°10.415 2°38.25 79.1 12.6 78 18.7
2012-03-22 15:23:43 51°10.441 2°38.581 82.9 12.6 81 17.8
2012-03-22 15:24:43 51°10.472 2°38.911 82.9 12.6 81 17.4
2012-03-22 15:25:43 51°10.519 2°39.238 75.1 12.7 72 16.6
2012-03-22 15:26:43 51°10.574 2°39.565 77.8 12.8 77 16.1
2012-03-22 15:27:43 51°10.619 2°39.895 74.4 12.8 72 15.6
2012-03-22 15:28:43 51°10.711 2°40.2 64.3 12.8 62 14.9
2012-03-22 15:29:43 51°10.795 2°40.509 73.9 12.8 71 14.5
2012-03-22 15:30:43 51°10.865 2°40.828 72.5 12.7 71 13.9
2012-03-22 15:31:43 51°10.94 2°41.143 69.9 12.7 68 13.6
2012-03-22 15:32:43 51°11.014 2°41.405 62.5 8.2 61 13.5
2012-03-22 15:33:43 51°11.063 2°41.574 70.3 6.3 71 13.2
2012-03-22 15:34:43 51°11.07 2°41.735 92.2 6.5 91 13.3
2012-03-22 15:35:43 51°11.076 2°41.892 82.5 3.9 85 13.3
2012-03-22 15:36:43 51°11.064 2°41.945 131.1 1.3 136 13.4
2012-03-22 15:37:43 51°11.054 2°41.95 156 0.4 203 13.4
2012-03-22 15:38:43 51°11.048 2°41.945 164.9 0.5 210 13.4
2012-03-22 15:39:43 51°11.04 2°41.936 162.8 0.5 216 13.5
2012-03-22 15:40:43 51°11.034 2°41.928 157.5 0.5 219 13.5
2012-03-22 15:41:43 51°11.028 2°41.92 151.9 0.5 224 13.5
2012-03-22 15:42:43 51°11.016 2°41.922 132.2 1.7 137 13.4
2012-03-22 15:43:43 51°10.997 2°42.033 96.7 7.3 97 13.4
2012-03-22 15:44:43 51°10.98 2°42.297 90.8 11.5 88 13.5
2012-03-22 15:45:43 51°11.023 2°42.607 74.8 12.2 74 13.5
2012-03-22 15:46:43 51°11.077 2°42.92 77.1 12.1 77 13.6
2012-03-22 15:47:43 51°11.116 2°43.233 82 12 81 13.4
2012-03-22 15:48:43 51°11.178 2°43.535 70.6 12 68 13.4
2012-03-22 15:49:43 51°11.254 2°43.827 69.8 12 68 13.4
2012-03-22 15:50:43 51°11.327 2°44.123 71.9 12 71 13.5
2012-03-22 15:51:43 51°11.374 2°44.433 78.8 12 77 13.4
2012-03-22 15:52:43 51°11.432 2°44.736 71.9 12 70 13.5
2012-03-22 15:53:43 51°11.512 2°45.028 66.8 12.1 64 13.5
2012-03-22 15:54:43 51°11.588 2°45.323 75.3 12.1 74 13.5
2012-03-22 15:55:43 51°11.641 2°45.63 73.3 12 69 13.5
2012-03-22 15:56:43 51°11.71 2°45.928 73.2 12 72 13.6
2012-03-22 15:57:43 51°11.773 2°46.229 72.5 12 70 13.5
2012-03-22 15:58:43 51°11.844 2°46.525 74.4 12 75 13.4
2012-03-22 15:59:43 51°11.89 2°46.833 77.3 11.9 76 13.2
2012-03-22 16:00:43 51°11.942 2°47.137 73.8 11.9 72 12.9
2012-03-22 16:01:43 51°12.018 2°47.428 67.8 11.9 67 12.8
2012-03-22 16:02:43 51°12.083 2°47.726 77 11.9 76 12.4
2012-03-22 16:03:43 51°12.149 2°48.022 67.6 11.9 65 12.2
2012-03-22 16:04:43 51°12.229 2°48.311 67.6 11.9 65 11.9
2012-03-22 16:05:43 51°12.329 2°48.583 58.8 11.9 55 12
2012-03-22 16:06:43 51°12.434 2°48.851 65 12 64 12
2012-03-22 16:07:43 51°12.511 2°49.141 68.1 11.9 66 11.8
2012-03-22 16:08:43 51°12.596 2°49.424 64.4 11.8 62 11.6
2012-03-22 16:09:43 51°12.707 2°49.682 56 11.9 54 11.7
2012-03-22 16:10:43 51°12.805 2°49.953 66.6 11.8 65 11.5
2012-03-22 16:11:43 51°12.902 2°50.226 59.6 11.8 58 11.4
2012-03-22 16:12:43 51°12.996 2°50.5 66.5 11.8 64 11.5
2012-03-22 16:13:43 51°13.088 2°50.775 62 11.8 59 11.2
2012-03-22 16:14:43 51°13.192 2°51.039 59.6 11.8 57 11.1
2012-03-22 16:15:43 51°13.3 2°51.299 63 11.8 61 11
2012-03-22 16:16:43 51°13.386 2°51.58 64.8 11.7 61 10.9
2012-03-22 16:17:43 51°13.492 2°51.842 58.4 11.8 57 10.8
2012-03-22 16:18:43 51°13.602 2°52.1 60.4 11.8 58 10.7
2012-03-22 16:19:43 51°13.709 2°52.36 59.6 11.7 58 10.4
2012-03-22 16:20:43 51°13.801 2°52.633 65.2 11.7 64 10.4
2012-03-22 16:21:43 51°13.897 2°52.902 59.8 11.6 57 10.2
2012-03-22 16:22:43 51°14 2°53.164 62.5 11.7 61 10
2012-03-22 16:23:43 51°14.098 2°53.429 59.6 11.6 56 9.7
2012-03-22 16:24:43 51°14.209 2°53.682 56.7 11.6 55 9.6
2012-03-22 16:25:43 51°14.317 2°53.935 58.1 11.4 55 10.1
2012-03-22 16:26:43 51°14.441 2°54.164 50.1 11.3 45 10.2
2012-03-22 16:27:43 51°14.563 2°54.389 56.5 11.3 56 10.4
2012-03-22 16:28:43 51°14.607 2°54.675 87.9 11.2 92 10.8
2012-03-22 16:29:43 51°14.541 2°54.957 117.5 11.6 127 11.9
2012-03-22 16:30:44 51°14.395 2°55.158 147.3 11 146 -999
2012-03-22 16:31:46 51°14.243 2°55.308 148.1 9.9 148 -999
2012-03-22 16:32:46 51°14.104 2°55.425 154.5 9 155 -999
2012-03-22 16:33:46 51°14.004 2°55.497 157.6 5.1 157 10.7
2012-03-22 16:34:46 51°13.938 2°55.544 155.7 3.9 155 -999
2012-03-22 16:35:46 51°13.879 2°55.587 155.9 3.8 155 -999
2012-03-22 16:36:46 51°13.822 2°55.631 150.9 3.8 151 -999
2012-03-22 16:37:47 51°13.772 2°55.692 137.4 3.7 138 -999
2012-03-22 16:38:46 51°13.73 2°55.763 129.4 3.7 130 -999
2012-03-22 16:39:46 51°13.691 2°55.845 127.5 4.6 126 -999
2012-03-22 16:40:46 51°13.653 2°55.942 112.6 3.8 113 -999
2012-03-22 16:41:46 51°13.639 2°56.012 120.9 1.1 116 -999
2012-03-22 16:42:46 51°13.637 2°56.019 124.9 -999 130 -999